Time;durP1;ratioP1;P1;durP2;ratioP2;P2;SDS_P1;SDS_P2;PMS_P1;PMS_P2;Temp;Humidity;BMP_temperature;BMP_pressure;BME280_temperature;BME280_humidity;BME280_pressure;Samples;Min_cycle;Max_cycle;Signal;HPM_P1;HPM_P2
2023/05/06 00:00:11;;;;;;;1.08;0.98;;;;;;;12.47;74.83;99700.28;5115949;28;20405;-72
2023/05/06 00:02:43;;;;;;;1.17;0.95;;;;;;;12.50;74.79;99690.03;5115617;28;20107;-72
2023/05/06 00:05:13;;;;;;;1.00;0.95;;;;;;;12.45;74.56;99699.47;5115794;28;20100;-72
2023/05/06 00:07:41;;;;;;;;;;;;;;;12.43;75.28;99698.63;5114941;28;20044;-72
2023/05/06 00:10:10;;;;;;;0.63;0.63;;;;;;;12.37;74.85;99689.28;5115574;28;19919;-72
2023/05/06 00:12:39;;;;;;;2.20;2.00;;;;;;;12.41;75.00;99684.97;5097456;28;20501;-72
2023/05/06 00:15:10;;;;;;;1.10;0.70;;;;;;;12.41;75.15;99684.97;5115435;28;20508;-72
2023/05/06 00:17:40;;;;;;;2.60;1.27;;;;;;;12.33;75.10;99673.97;5115483;27;20055;-72
2023/05/06 00:20:10;;;;;;;1.60;1.50;;;;;;;12.31;75.17;99673.13;5115363;28;20040;-73
2023/05/06 00:22:39;;;;;;;1.25;1.15;;;;;;;12.31;75.23;99675.69;5115286;28;20489;-72
2023/05/06 00:25:08;;;;;;;0.52;0.52;;;;;;;12.32;75.32;99677.38;5114021;28;20036;-72
2023/05/06 00:27:37;;;;;;;0.63;0.63;;;;;;;12.29;75.36;99672.28;5115145;28;20120;-72
2023/05/06 00:30:09;;;;;;;0.90;0.87;;;;;;;12.26;75.47;99670.56;5115078;28;20035;-72
2023/05/06 00:32:38;;;;;;;1.80;1.15;;;;;;;12.20;75.47;99669.78;5115169;28;20055;-73
2023/05/06 00:35:08;;;;;;;1.57;1.47;;;;;;;12.19;75.73;99673.22;5113749;28;20142;-72
2023/05/06 00:37:38;;;;;;;0.70;0.60;;;;;;;12.14;75.80;99669.84;5113366;28;20792;-72
2023/05/06 00:40:08;;;;;;;1.48;1.38;;;;;;;12.13;76.19;99668.13;5115174;28;20447;-72
2023/05/06 00:42:37;;;;;;;1.15;0.90;;;;;;;12.10;75.86;99669.00;5114948;28;20108;-72
2023/05/06 00:45:07;;;;;;;1.15;1.05;;;;;;;12.07;76.12;99664.75;5114948;28;20044;-72
2023/05/06 00:47:38;;;;;;;0.60;0.60;;;;;;;12.06;76.23;99657.97;5114791;28;20054;-71
2023/05/06 00:50:08;;;;;;;2.45;1.35;;;;;;;12.08;75.96;99671.59;5115123;28;20032;-72
2023/05/06 00:52:37;;;;;;;0.93;0.90;;;;;;;12.02;76.01;99656.25;5114047;28;20435;-72
2023/05/06 00:55:07;;;;;;;0.77;0.70;;;;;;;12.05;76.04;99666.47;5114849;27;20104;-72
2023/05/06 00:57:36;;;;;;;11.73;2.03;;;;;;;12.05;75.98;99665.63;5114003;28;20035;-72
2023/05/06 01:00:06;;;;;;;0.73;0.73;;;;;;;12.08;76.27;99671.59;5113346;28;20063;-72
2023/05/06 01:02:35;;;;;;;1.10;0.90;;;;;;;12.08;76.01;99671.59;5113329;28;20052;-72
2023/05/06 01:05:33;;;;;;;0.60;0.60;;;;;;;12.11;75.94;99665.59;5115015;28;20114;-72
2023/05/06 01:08:11;;;;;;;2.47;1.40;;;;;;;12.08;75.91;99671.59;5113134;28;20083;-71
2023/05/06 01:10:50;;;;;;;1.17;1.08;;;;;;;12.02;76.09;99674.16;5114742;28;20048;-72
2023/05/06 01:13:25;;;;;;;2.38;1.60;;;;;;;12.02;76.09;99674.16;5114761;28;20090;-72
2023/05/06 01:15:56;;;;;;;1.40;0.88;;;;;;;12.03;75.96;99673.31;5113090;28;20077;-72
2023/05/06 01:18:27;;;;;;;1.08;0.70;;;;;;;12.03;76.41;99672.47;5114281;28;20089;-72
2023/05/06 01:21:00;;;;;;;1.27;1.15;;;;;;;12.05;76.45;99671.59;5113147;28;20073;-72
2023/05/06 01:23:51;;;;;;;0.57;0.47;;;;;;;12.07;76.34;99674.13;5114145;28;20105;-72
2023/05/06 01:26:20;;;;;;;0.70;0.63;;;;;;;12.08;76.07;99680.97;5113031;28;20041;-72
2023/05/06 01:28:48;;;;;;;0.30;0.30;;;;;;;12.10;76.45;99680.09;5114184;28;20047;-72
2023/05/06 01:31:25;;;;;;;0.80;0.80;;;;;;;12.14;76.27;99680.09;5114119;28;20039;-71
2023/05/06 01:34:14;;;;;;;0.93;0.90;;;;;;;12.08;76.24;99681.81;5112932;28;20052;-71
2023/05/06 01:36:56;;;;;;;0.90;0.90;;;;;;;12.04;76.55;99675.00;5112555;28;20135;-71
2023/05/06 01:39:31;;;;;;;0.75;0.75;;;;;;;12.07;76.53;99684.38;5114292;28;20520;-72
2023/05/06 01:42:03;;;;;;;0.57;0.57;;;;;;;12.05;76.45;99681.84;5114264;28;20451;-73
2023/05/06 01:44:34;;;;;;;0.40;0.40;;;;;;;12.01;76.43;99677.59;5113879;28;20054;-73
2023/05/06 01:47:04;;;;;;;1.25;0.98;;;;;;;11.99;76.24;99689.56;5113958;28;20044;-73
2023/05/06 01:49:34;;;;;;;1.10;1.02;;;;;;;11.98;76.68;99687.00;5096025;28;20118;-72
2023/05/06 01:52:03;;;;;;;0.60;0.60;;;;;;;11.98;76.45;99695.53;5114494;28;20073;-72
2023/05/06 01:54:33;;;;;;;0.60;0.60;;;;;;;11.95;76.53;99690.41;5113807;28;20044;-72
2023/05/06 01:57:02;;;;;;;0.98;0.90;;;;;;;11.96;76.41;99686.16;5112803;28;20089;-72
2023/05/06 01:59:33;;;;;;;1.23;1.13;;;;;;;11.96;76.53;99676.78;5112773;28;20054;-72
2023/05/06 02:02:02;;;;;;;1.83;1.00;;;;;;;11.93;76.77;99671.69;5114019;28;20096;-72
2023/05/06 02:04:31;;;;;;;0.80;0.80;;;;;;;12.01;76.80;99675.06;5112608;28;20073;-72
2023/05/06 02:07:00;;;;;;;0.30;0.30;;;;;;;12.04;76.58;99674.19;5113701;28;20562;-72
2023/05/06 02:09:29;;;;;;;0.80;0.80;;;;;;;11.98;76.86;99669.09;5113707;28;20092;-72
2023/05/06 02:12:04;;;;;;;0.65;0.65;;;;;;;12.00;76.65;99668.22;5114103;28;20048;-72
2023/05/06 02:14:33;;;;;;;0.65;0.65;;;;;;;11.98;76.77;99663.97;5096031;28;20150;-72
2023/05/06 02:17:03;;;;;;;0.75;0.75;;;;;;;11.97;76.80;99662.28;5112433;28;20055;-72
2023/05/06 02:19:32;;;;;;;0.60;0.60;;;;;;;11.99;76.88;99651.19;5114211;28;20038;-72
2023/05/06 02:22:01;;;;;;;2.80;1.50;;;;;;;11.94;76.87;99652.94;5117592;28;20071;-73
2023/05/06 02:24:31;;;;;;;0.75;0.75;;;;;;;11.91;76.94;99646.97;5117613;28;20074;-72
2023/05/06 02:27:01;;;;;;;0.40;0.40;;;;;;;11.85;77.00;99645.28;5117334;28;20101;-72
2023/05/06 02:29:31;;;;;;;4.13;1.60;;;;;;;11.72;77.21;99636.00;5116528;28;20553;-72
2023/05/06 02:32:01;;;;;;;1.05;0.98;;;;;;;11.74;77.32;99639.41;5116212;28;20043;-72
2023/05/06 02:34:30;;;;;;;2.85;1.75;;;;;;;11.73;77.68;99647.09;5117382;28;20122;-72
2023/05/06 02:36:59;;;;;;;0.95;0.88;;;;;;;11.77;77.76;99643.66;5117000;28;20052;-71
2023/05/06 02:39:27;;;;;;;0.77;0.77;;;;;;;11.80;77.75;99654.72;5117276;28;20040;-72
2023/05/06 02:41:56;;;;;;;0.40;0.40;;;;;;;11.78;77.90;99661.53;5117114;28;20047;-72
2023/05/06 02:44:25;;;;;;;0.50;0.50;;;;;;;11.77;77.94;99659.84;5117170;28;20036;-72
2023/05/06 02:47:06;;;;;;;0.93;0.82;;;;;;;11.74;77.88;99670.09;5117045;28;20127;-72
2023/05/06 02:49:35;;;;;;;2.47;1.15;;;;;;;11.66;78.25;99671.78;5117094;28;20121;-72
2023/05/06 02:52:05;;;;;;;0.80;0.80;;;;;;;11.53;77.87;99654.84;5116989;28;20070;-72
2023/05/06 02:54:33;;;;;;;0.60;0.60;;;;;;;11.69;77.92;99686.31;5115799;28;20036;-72
2023/05/06 02:57:02;;;;;;;1.67;0.77;;;;;;;11.67;77.91;99696.53;5116976;27;20048;-72
2023/05/06 02:59:31;;;;;;;1.40;0.80;;;;;;;11.66;77.94;99697.34;5115927;28;20126;-73
2023/05/06 03:02:00;;;;;;;2.28;0.98;;;;;;;11.66;78.11;99686.31;5117975;28;20067;-72
2023/05/06 03:04:30;;;;;;;1.25;1.15;;;;;;;11.63;77.85;99684.63;5117067;28;20138;-72
2023/05/06 03:06:59;;;;;;;0.50;0.50;;;;;;;11.61;78.05;99683.78;5117037;28;20056;-72
2023/05/06 03:09:28;;;;;;;1.03;1.00;;;;;;;11.68;77.91;99682.91;5115711;28;20504;-72
2023/05/06 03:11:57;;;;;;;0.97;0.93;;;;;;;11.68;78.05;99675.25;5115643;28;20283;-72
2023/05/06 03:14:27;;;;;;;0.52;0.52;;;;;;;11.69;77.89;99682.03;5116598;28;20063;-72
2023/05/06 03:16:56;;;;;;;0.77;0.73;;;;;;;11.72;77.74;99682.03;5115614;28;20375;-72
2023/05/06 03:19:25;;;;;;;0.40;0.40;;;;;;;11.73;77.73;99678.63;5116444;28;20054;-73
2023/05/06 03:21:56;;;;;;;0.95;0.95;;;;;;;11.78;77.89;99684.53;5115250;28;20032;-72
2023/05/06 03:24:26;;;;;;;0.60;0.60;;;;;;;11.68;77.84;99665.03;5115246;28;20055;-72
2023/05/06 03:26:55;;;;;;;1.25;1.15;;;;;;;11.80;77.58;99680.31;5116264;28;20055;-72
2023/05/06 03:29:25;;;;;;;0.40;0.40;;;;;;;11.75;77.94;99671.81;5116610;28;20051;-72
2023/05/06 03:31:56;;;;;;;1.35;1.25;;;;;;;11.72;78.04;99673.50;5115235;28;20432;-72
2023/05/06 03:34:27;;;;;;;1.42;0.85;;;;;;;11.70;78.12;99673.53;5115454;28;20051;-72
2023/05/06 03:36:59;;;;;;;0.80;0.80;;;;;;;11.72;78.19;99670.97;5115094;28;20052;-72
2023/05/06 03:39:29;;;;;;;1.10;1.00;;;;;;;11.74;78.14;99667.53;5115210;28;20047;-72
2023/05/06 03:41:59;;;;;;;0.73;0.73;;;;;;;11.69;78.24;99666.72;5114908;28;20052;-72
2023/05/06 03:44:29;;;;;;;;;;;;;;;11.70;78.55;99663.31;5116464;28;20051;-72
2023/05/06 03:46:58;;;;;;;0.57;0.57;;;;;;;11.80;78.37;99659.84;5115850;28;19920;-72
2023/05/06 03:49:29;;;;;;;1.63;1.27;;;;;;;11.80;78.37;99659.00;5116489;28;20462;-72
2023/05/06 03:51:59;;;;;;;0.80;0.80;;;;;;;11.79;78.69;99668.38;5115855;28;20035;-72
2023/05/06 03:54:29;;;;;;;2.08;1.27;;;;;;;11.80;78.58;99675.19;5116116;28;20657;-72
2023/05/06 03:56:58;;;;;;;1.65;1.55;;;;;;;11.83;78.57;99679.44;5114652;28;20054;-72
2023/05/06 03:59:26;;;;;;;0.50;0.50;;;;;;;11.77;78.76;99670.09;5114819;28;20131;-72
2023/05/06 04:01:57;;;;;;;0.57;0.57;;;;;;;11.84;79.18;99676.84;5116328;28;20055;-72
2023/05/06 04:04:27;;;;;;;0.60;0.50;;;;;;;11.87;79.09;99687.06;5115928;28;20031;-72
2023/05/06 04:06:56;;;;;;;5.15;1.70;;;;;;;11.89;79.34;99685.34;5115616;28;20142;-72
2023/05/06 04:09:27;;;;;;;1.63;1.40;;;;;;;11.93;79.07;99692.13;5115803;28;20495;-72
2023/05/06 04:11:56;;;;;;;0.82;0.82;;;;;;;11.90;78.78;99684.47;5114852;28;20490;-72
2023/05/06 04:14:27;;;;;;;2.13;1.27;;;;;;;11.86;78.92;99700.72;5115521;28;20044;-72
2023/05/06 04:16:56;;;;;;;1.25;1.00;;;;;;;11.87;79.01;99696.44;5114234;28;20135;-72
2023/05/06 04:19:25;;;;;;;1.25;1.15;;;;;;;11.87;79.01;99702.41;5114249;28;20119;-72
2023/05/06 04:21:54;;;;;;;2.85;2.03;;;;;;;11.89;78.96;99690.47;5114289;28;20464;-72
2023/05/06 04:24:23;;;;;;;1.80;1.60;;;;;;;11.95;78.92;99685.31;5115526;28;20513;-73
2023/05/06 04:26:53;;;;;;;1.13;1.03;;;;;;;11.99;78.72;99689.56;5113928;28;20043;-72
2023/05/06 04:29:22;;;;;;;0.95;0.95;;;;;;;11.98;78.69;99669.09;5115531;28;20062;-72
2023/05/06 04:32:01;;;;;;;0.82;0.82;;;;;;;12.05;78.60;99681.84;5113871;28;20044;-72
2023/05/06 04:34:35;;;;;;;1.20;0.77;;;;;;;11.92;78.05;99690.47;5113970;28;20047;-72
2023/05/06 04:37:06;;;;;;;1.65;0.77;;;;;;;11.92;78.74;99684.50;5114780;28;20097;-72
2023/05/06 04:39:47;;;;;;;0.68;0.68;;;;;;;12.03;78.82;99686.13;5114980;28;20051;-72
2023/05/06 04:42:19;;;;;;;0.90;0.90;;;;;;;12.04;78.85;99690.34;5113493;28;20446;-72
2023/05/06 04:45:06;;;;;;;1.05;1.00;;;;;;;12.12;78.62;99695.41;5114852;28;20055;-72
2023/05/06 04:47:37;;;;;;;0.60;0.60;;;;;;;12.21;78.66;99695.38;5113530;28;20040;-72
2023/05/06 04:50:07;;;;;;;0.60;0.60;;;;;;;12.32;78.41;99695.28;5114741;28;20048;-72
2023/05/06 04:52:36;;;;;;;;;;;;;;;12.45;78.19;99690.03;5114181;28;20047;-72
2023/05/06 04:55:06;;;;;;;;;;;;;;;12.53;78.02;99695.97;5115070;28;20396;-72
2023/05/06 04:57:39;;;;;;;0.60;0.60;;;;;;;12.60;77.80;99691.63;5115217;28;19919;-72
2023/05/06 05:00:10;;;;;;;0.63;0.63;;;;;;;12.61;77.61;99688.22;5113688;28;20396;-72
2023/05/06 05:02:39;;;;;;;1.73;1.10;;;;;;;12.59;77.25;99688.25;5113290;28;20044;-71
2023/05/06 05:05:09;;;;;;;14.33;2.57;;;;;;;12.66;77.36;99684.78;5113273;28;20047;-72
2023/05/06 05:07:39;;;;;;;3.42;2.08;;;;;;;12.80;77.17;99679.50;5113630;28;20726;-72
2023/05/06 05:10:09;;;;;;;;;;;;;;;13.06;76.79;99681.81;5114768;28;20100;-72
2023/05/06 05:12:40;;;;;;;1.00;1.00;;;;;;;13.24;76.59;99676.50;5113435;28;19920;-72
2023/05/06 05:15:10;;;;;;;1.80;1.45;;;;;;;13.42;75.66;99682.25;5114310;28;20043;-72
2023/05/06 05:17:40;;;;;;;1.80;1.15;;;;;;;13.56;74.97;99678.66;5113204;28;20050;-72
2023/05/06 05:20:10;;;;;;;2.65;1.20;;;;;;;13.64;74.19;99676.84;5113327;28;20058;-72
2023/05/06 05:22:39;;;;;;;0.90;0.90;;;;;;;13.76;73.39;99669.00;5112930;28;20134;-72
2023/05/06 05:25:08;;;;;;;1.60;1.40;;;;;;;13.91;72.64;99671.34;5113351;28;20044;-73
